createdAt,value
2018-12-25T00:00:11.384Z,6.30
2018-12-25T00:01:11.376Z,6.33
2018-12-25T00:02:11.368Z,6.41
2018-12-25T00:03:11.355Z,6.30
2018-12-25T00:04:11.348Z,6.35
2018-12-25T00:05:11.338Z,6.42
2018-12-25T00:06:11.331Z,6.38
2018-12-25T00:07:11.319Z,6.46
2018-12-25T00:08:11.311Z,6.27
2018-12-25T00:09:11.304Z,6.27
2018-12-25T00:10:11.292Z,6.17
2018-12-25T00:11:11.283Z,6.31
2018-12-25T00:12:11.276Z,6.26
2018-12-25T00:13:11.267Z,6.26
2018-12-25T00:14:11.257Z,6.24
2018-12-25T00:15:11.242Z,6.16
2018-12-25T00:16:11.236Z,6.26
2018-12-25T00:17:11.229Z,6.26
2018-12-25T00:18:11.220Z,6.11
2018-12-25T00:19:11.214Z,6.20
2018-12-25T00:20:11.199Z,6.14
2018-12-25T00:21:11.193Z,6.14
2018-12-25T00:22:11.183Z,6.12
2018-12-25T00:23:11.211Z,6.12
2018-12-25T00:24:11.164Z,6.12
2018-12-25T00:25:11.152Z,6.04
2018-12-25T00:26:11.143Z,6.07
2018-12-25T00:27:11.238Z,6.11
2018-12-25T00:28:11.124Z,5.99
2018-12-25T00:29:11.116Z,6.04
2018-12-25T00:30:11.112Z,6.04
2018-12-25T00:31:11.094Z,5.99
2018-12-25T00:32:11.088Z,6.02
2018-12-25T00:33:11.078Z,5.97
2018-12-25T00:34:11.068Z,6.05
2018-12-25T00:35:11.059Z,6.05
2018-12-25T00:36:11.052Z,6.05
2018-12-25T00:37:11.043Z,6.02
2018-12-25T00:38:11.036Z,6.02
2018-12-25T00:39:11.029Z,6.05
2018-12-25T00:40:11.013Z,6.07
2018-12-25T00:41:11.007Z,6.05
2018-12-25T00:42:10.992Z,5.99
2018-12-25T00:43:10.982Z,6.05
2018-12-25T00:44:10.980Z,6.05
2018-12-25T00:45:10.967Z,6.17
2018-12-25T00:46:10.954Z,6.11
2018-12-25T00:47:11.032Z,6.26
2018-12-25T00:48:10.936Z,6.17
2018-12-25T00:49:14.767Z,6.22
2018-12-25T00:50:10.917Z,6.19
2018-12-25T00:51:10.908Z,6.28
2018-12-25T00:52:10.900Z,6.24
2018-12-25T00:53:10.889Z,6.28
2018-12-25T00:54:10.880Z,6.33
2018-12-25T00:55:10.875Z,6.31
2018-12-25T00:56:10.861Z,6.38
2018-12-25T00:57:10.852Z,6.28
2018-12-25T00:58:10.845Z,6.22
2018-12-25T00:59:10.833Z,6.26
2018-12-25T01:00:10.826Z,6.24
2018-12-25T01:01:10.817Z,6.14
2018-12-25T01:02:10.808Z,6.24
2018-12-25T01:03:10.798Z,6.31
2018-12-25T01:04:10.787Z,6.26
2018-12-25T01:05:10.780Z,6.28
2018-12-25T01:06:10.770Z,6.30
2018-12-25T01:07:10.762Z,6.35
2018-12-25T01:08:10.750Z,6.30
2018-12-25T01:09:10.742Z,6.31
2018-12-25T01:10:10.735Z,6.27
2018-12-25T01:11:10.724Z,6.31
2018-12-25T01:12:10.722Z,6.24
2018-12-25T01:13:10.706Z,6.22
2018-12-25T01:14:10.696Z,6.26
2018-12-25T01:15:10.687Z,6.12
2018-12-25T01:16:10.678Z,6.17
2018-12-25T01:17:10.669Z,6.14
2018-12-25T01:18:10.658Z,6.19
2018-12-25T01:19:10.650Z,6.12
2018-12-25T01:20:10.639Z,6.19
2018-12-25T01:21:10.628Z,6.14
2018-12-25T01:22:10.620Z,6.20
2018-12-25T01:23:10.613Z,6.20
2018-12-25T01:24:10.601Z,6.19
2018-12-25T01:25:10.619Z,6.12
2018-12-25T01:26:10.585Z,6.28
2018-12-25T01:27:10.576Z,6.22
2018-12-25T01:28:10.668Z,6.27
2018-12-25T01:29:10.566Z,6.35
2018-12-25T01:30:10.547Z,6.36
2018-12-25T01:31:10.539Z,6.28
2018-12-25T01:32:10.529Z,6.35
2018-12-25T01:33:10.524Z,6.33
2018-12-25T01:34:10.510Z,6.31
2018-12-25T01:35:10.501Z,6.33
2018-12-25T01:36:10.496Z,6.35
2018-12-25T01:37:10.485Z,6.35
2018-12-25T01:38:10.480Z,6.31
2018-12-25T01:39:10.466Z,6.28
2018-12-25T01:40:10.457Z,6.36
2018-12-25T01:41:10.446Z,6.44
2018-12-25T01:42:10.436Z,6.42
2018-12-25T01:43:10.429Z,6.41
2018-12-25T01:44:10.423Z,6.41
2018-12-25T01:45:10.416Z,6.41
2018-12-25T01:46:10.400Z,6.36
2018-12-25T01:47:10.393Z,6.46
2018-12-25T01:48:10.383Z,6.44
2018-12-25T01:49:10.375Z,6.44
2018-12-25T01:50:10.367Z,6.44
2018-12-25T01:51:10.358Z,6.35
2018-12-25T01:52:10.347Z,6.49
2018-12-25T01:53:10.337Z,6.51
2018-12-25T01:54:10.328Z,6.54
2018-12-25T01:55:10.319Z,6.57
2018-12-25T01:56:10.309Z,6.60
2018-12-25T01:57:10.301Z,6.56
2018-12-25T01:58:10.291Z,6.60
2018-12-25T01:59:10.284Z,6.54
2018-12-25T02:00:10.274Z,6.56
2018-12-25T02:01:10.264Z,6.62
2018-12-25T02:02:10.254Z,6.59
2018-12-25T02:03:10.247Z,6.63
2018-12-25T02:04:10.241Z,6.63
2018-12-25T02:05:10.229Z,6.52
2018-12-25T02:06:10.219Z,6.66
2018-12-25T02:07:10.230Z,6.60
2018-12-25T02:08:10.204Z,6.66
2018-12-25T02:09:10.192Z,6.69
2018-12-25T02:10:10.183Z,6.66
2018-12-25T02:11:10.175Z,6.63
2018-12-25T02:12:10.180Z,6.63
2018-12-25T02:13:10.158Z,6.62
2018-12-25T02:14:10.154Z,6.62
2018-12-25T02:15:10.138Z,6.63
2018-12-25T02:16:10.130Z,6.63
2018-12-25T02:17:10.126Z,6.77
2018-12-25T02:18:10.113Z,6.69
2018-12-25T02:19:10.110Z,6.66
2018-12-25T02:20:10.096Z,6.70
2018-12-25T02:21:10.086Z,6.69
2018-12-25T02:22:10.077Z,6.57
2018-12-25T02:23:10.073Z,6.56
2018-12-25T02:24:10.058Z,6.56
2018-12-25T02:25:10.050Z,6.56
2018-12-25T02:26:10.040Z,6.56
2018-12-25T02:27:10.034Z,6.54
2018-12-25T02:28:10.023Z,6.59
2018-12-25T02:29:10.015Z,6.52
2018-12-25T02:30:10.005Z,6.56
2018-12-25T02:31:09.998Z,6.51
2018-12-25T02:32:09.988Z,6.52
2018-12-25T02:33:09.984Z,6.59
2018-12-25T02:34:09.970Z,6.51
2018-12-25T02:35:09.965Z,6.56
2018-12-25T02:36:09.956Z,6.59
2018-12-25T02:37:09.947Z,6.60
2018-12-25T02:38:09.936Z,6.67
2018-12-25T02:39:09.927Z,6.62
2018-12-25T02:40:09.919Z,6.69
2018-12-25T02:41:09.910Z,6.69
2018-12-25T02:42:09.898Z,6.79
2018-12-25T02:43:09.890Z,6.77
2018-12-25T02:44:09.902Z,6.77
2018-12-25T02:45:09.875Z,6.85
2018-12-25T02:46:09.862Z,6.79
2018-12-25T02:47:09.857Z,6.85
2018-12-25T02:48:09.853Z,6.78
2018-12-25T02:49:09.848Z,6.77
2018-12-25T02:50:09.832Z,6.84
2018-12-25T02:51:09.823Z,6.81
2018-12-25T02:52:09.813Z,6.88
2018-12-25T02:53:09.806Z,6.79
2018-12-25T02:54:09.793Z,6.72
2018-12-25T02:55:09.787Z,6.67
2018-12-25T02:56:09.773Z,6.77
2018-12-25T02:57:09.768Z,6.77
2018-12-25T02:58:09.759Z,6.69
2018-12-25T02:59:09.768Z,6.74
2018-12-25T03:00:09.742Z,6.72
2018-12-25T03:01:09.732Z,6.64
2018-12-25T03:02:09.725Z,6.72
2018-12-25T03:03:09.718Z,6.70
2018-12-25T03:04:09.704Z,6.74
2018-12-25T03:05:09.698Z,6.84
2018-12-25T03:06:09.688Z,6.82
2018-12-25T03:07:09.679Z,6.87
2018-12-25T03:08:09.671Z,6.89
2018-12-25T03:09:09.663Z,6.92
2018-12-25T03:10:09.651Z,6.99
2018-12-25T03:11:09.644Z,6.88
2018-12-25T03:12:09.633Z,6.87
2018-12-25T03:13:09.625Z,6.96
2018-12-25T03:14:09.617Z,6.92
2018-12-25T03:15:09.610Z,6.95
2018-12-25T03:16:09.598Z,6.92
2018-12-25T03:17:09.591Z,6.87
2018-12-25T03:18:09.582Z,6.82
2018-12-25T03:19:09.574Z,6.85
2018-12-25T03:20:09.576Z,6.85
2018-12-25T03:21:09.559Z,6.85
2018-12-25T03:22:09.542Z,6.84
2018-12-25T03:23:09.537Z,6.87
2018-12-25T03:24:09.529Z,6.87
2018-12-25T03:25:09.521Z,6.88
2018-12-25T03:26:09.510Z,6.87
2018-12-25T03:27:09.502Z,6.89
2018-12-25T03:28:09.493Z,6.84
2018-12-25T03:29:09.485Z,6.88
2018-12-25T03:30:09.490Z,6.89
2018-12-25T03:31:09.478Z,6.92
2018-12-25T03:32:09.479Z,6.81
2018-12-25T03:33:09.459Z,6.75
2018-12-25T03:34:09.452Z,6.82
2018-12-25T03:35:09.432Z,6.79
2018-12-25T03:36:09.429Z,6.78
2018-12-25T03:37:09.422Z,6.82
2018-12-25T03:38:09.404Z,6.74
2018-12-25T03:39:09.410Z,6.72
2018-12-25T03:40:09.397Z,6.70
2018-12-25T03:41:09.379Z,6.75
2018-12-25T03:42:09.379Z,6.72
2018-12-25T03:43:09.363Z,6.70
2018-12-25T03:44:09.350Z,6.75
2018-12-25T03:45:09.350Z,6.75
2018-12-25T03:46:09.336Z,6.72
2018-12-25T03:47:09.327Z,6.67
2018-12-25T03:48:09.319Z,6.69
2018-12-25T03:49:09.310Z,6.78
2018-12-25T03:50:10.918Z,6.78
2018-12-25T03:51:09.294Z,6.78
2018-12-25T03:52:09.288Z,6.78
2018-12-25T03:53:09.277Z,6.89
2018-12-25T03:54:09.264Z,6.87
2018-12-25T03:55:09.273Z,6.79
2018-12-25T03:56:09.252Z,6.79
2018-12-25T03:57:09.240Z,6.79
2018-12-25T03:58:09.226Z,6.92
2018-12-25T03:59:09.228Z,6.78
2018-12-25T04:00:09.211Z,6.78
2018-12-25T04:01:09.206Z,6.78
2018-12-25T04:02:09.199Z,6.82
2018-12-25T04:03:09.187Z,6.84
2018-12-25T04:04:09.179Z,6.77
2018-12-25T04:05:09.167Z,6.88
2018-12-25T04:06:09.159Z,6.82
2018-12-25T04:07:09.150Z,6.82
2018-12-25T04:08:09.150Z,6.78
2018-12-25T04:09:09.134Z,6.87
2018-12-25T04:10:09.122Z,6.78
2018-12-25T04:11:09.115Z,6.79
2018-12-25T04:12:09.105Z,6.89
2018-12-25T04:13:09.097Z,6.87
2018-12-25T04:14:09.091Z,6.87
2018-12-25T04:15:09.082Z,6.97
2018-12-25T04:16:09.073Z,7.00
2018-12-25T04:17:09.062Z,6.93
2018-12-25T04:18:36.728Z,7.00
2018-12-25T04:19:09.051Z,6.95
2018-12-25T04:20:09.037Z,6.99
2018-12-25T04:21:09.026Z,7.02
2018-12-25T04:22:09.020Z,6.99
2018-12-25T04:23:09.012Z,6.97
2018-12-25T04:24:09.002Z,7.00
2018-12-25T04:25:08.991Z,7.02
2018-12-25T04:26:08.983Z,7.06
2018-12-25T04:27:08.975Z,7.05
2018-12-25T04:28:08.967Z,7.02
2018-12-25T04:29:08.951Z,7.00
2018-12-25T04:30:08.946Z,7.00
2018-12-25T04:31:08.944Z,7.03
2018-12-25T04:32:08.934Z,7.02
2018-12-25T04:33:08.923Z,7.00
2018-12-25T04:34:08.914Z,7.00
2018-12-25T04:35:08.904Z,7.05
2018-12-25T04:36:08.896Z,7.05
2018-12-25T04:37:08.887Z,7.05
2018-12-25T04:38:08.878Z,7.17
2018-12-25T04:39:08.869Z,7.14
2018-12-25T04:40:08.864Z,7.15
2018-12-25T04:41:08.852Z,7.10
2018-12-25T04:42:08.845Z,7.13
2018-12-25T04:43:08.834Z,7.18
2018-12-25T04:44:08.829Z,7.06
2018-12-25T04:45:08.827Z,7.06
2018-12-25T04:46:08.808Z,7.05
2018-12-25T04:47:08.799Z,7.03
2018-12-25T04:48:08.792Z,6.89
2018-12-25T04:49:08.789Z,6.85
2018-12-25T04:50:08.777Z,6.93
2018-12-25T04:51:08.763Z,6.92
2018-12-25T04:52:08.763Z,6.96
2018-12-25T04:53:08.748Z,6.93
2018-12-25T04:54:08.739Z,6.99
2018-12-25T04:55:08.731Z,6.96
2018-12-25T04:56:08.720Z,7.02
2018-12-25T04:57:08.715Z,6.88
2018-12-25T04:58:08.703Z,6.87
2018-12-25T04:59:08.694Z,6.88
2018-12-25T05:00:08.687Z,6.89
2018-12-25T05:01:08.677Z,6.97
2018-12-25T05:02:08.670Z,7.02
2018-12-25T05:03:08.659Z,7.00
2018-12-25T05:04:08.652Z,7.07
2018-12-25T05:05:08.644Z,7.05
2018-12-25T05:06:08.636Z,7.02
2018-12-25T05:07:08.627Z,7.06
2018-12-25T05:08:08.617Z,7.07
2018-12-25T05:09:08.609Z,7.03
2018-12-25T05:10:08.605Z,7.15
2018-12-25T05:11:08.593Z,7.14
2018-12-25T05:12:08.582Z,7.11
2018-12-25T05:13:08.574Z,7.15
2018-12-25T05:14:08.566Z,7.14
2018-12-25T05:15:08.556Z,7.13
2018-12-25T05:16:08.549Z,7.13
2018-12-25T05:17:08.541Z,7.11
2018-12-25T05:18:08.530Z,7.10
2018-12-25T05:19:08.525Z,7.14
2018-12-25T05:20:08.518Z,7.13
2018-12-25T05:21:08.504Z,7.18
2018-12-25T05:22:08.498Z,7.17
2018-12-25T05:23:08.487Z,7.18
2018-12-25T05:24:08.477Z,7.17
2018-12-25T05:25:08.470Z,7.17
2018-12-25T05:26:08.460Z,7.17
2018-12-25T05:27:08.453Z,7.21
2018-12-25T05:28:08.443Z,7.24
2018-12-25T05:29:08.435Z,7.15
2018-12-25T05:30:08.426Z,7.14
2018-12-25T05:31:08.421Z,7.15
2018-12-25T05:32:08.409Z,7.07
2018-12-25T05:33:08.401Z,7.10
2018-12-25T05:34:08.395Z,7.14
2018-12-25T05:35:08.384Z,7.00
2018-12-25T05:36:08.376Z,7.02
2018-12-25T05:37:08.370Z,7.11
2018-12-25T05:38:08.361Z,7.13
2018-12-25T05:39:08.348Z,7.23
2018-12-25T05:40:08.342Z,7.20
2018-12-25T05:41:08.334Z,7.21
2018-12-25T05:42:08.323Z,7.23
2018-12-25T05:43:08.315Z,7.20
2018-12-25T05:44:08.307Z,7.15
2018-12-25T05:45:08.299Z,7.18
2018-12-25T05:46:08.290Z,7.21
2018-12-25T05:47:08.279Z,7.25
2018-12-25T05:48:08.274Z,7.29
2018-12-25T05:49:08.266Z,7.32
2018-12-25T05:50:08.255Z,7.32
2018-12-25T05:51:08.246Z,7.28
2018-12-25T05:52:08.238Z,7.29
2018-12-25T05:53:08.225Z,7.11
2018-12-25T05:54:08.226Z,7.23
2018-12-25T05:55:08.213Z,7.32
2018-12-25T05:56:08.202Z,7.32
2018-12-25T05:57:08.196Z,7.29
2018-12-25T05:58:08.188Z,7.28
2018-12-25T05:59:08.178Z,7.25
2018-12-25T06:00:08.168Z,7.20
2018-12-25T06:01:08.158Z,7.18
2018-12-25T06:02:08.156Z,7.21
2018-12-25T06:03:08.144Z,7.28
2018-12-25T06:04:08.137Z,7.29
2018-12-25T06:05:08.125Z,7.17
2018-12-25T06:06:08.117Z,7.20
2018-12-25T06:07:08.181Z,7.18
2018-12-25T06:08:08.100Z,7.23
2018-12-25T06:09:08.095Z,7.28
2018-12-25T06:10:08.076Z,7.25
2018-12-25T06:11:08.073Z,7.24
2018-12-25T06:12:08.066Z,7.14
2018-12-25T06:13:08.057Z,7.24
2018-12-25T06:14:08.051Z,7.23
2018-12-25T06:15:08.041Z,7.21
2018-12-25T06:16:08.029Z,7.24
2018-12-25T06:17:08.023Z,7.25
2018-12-25T06:18:08.015Z,7.24
2018-12-25T06:19:08.007Z,7.18
2018-12-25T06:20:07.997Z,7.23
2018-12-25T06:21:07.989Z,7.23
2018-12-25T06:22:07.980Z,7.24
2018-12-25T06:23:07.971Z,7.20
2018-12-25T06:24:07.964Z,7.18
2018-12-25T06:25:07.956Z,7.21
2018-12-25T06:26:07.946Z,7.17
2018-12-25T06:27:07.939Z,7.18
2018-12-25T06:28:07.930Z,7.20
2018-12-25T06:29:07.921Z,7.17
2018-12-25T06:30:07.912Z,7.25
2018-12-25T06:31:07.902Z,7.15
2018-12-25T06:32:07.896Z,7.23
2018-12-25T06:33:07.886Z,7.14
2018-12-25T06:34:07.877Z,7.15
2018-12-25T06:35:07.870Z,7.23
2018-12-25T06:36:07.860Z,7.25
2018-12-25T06:37:07.851Z,7.21
2018-12-25T06:38:07.846Z,7.21
2018-12-25T06:39:07.841Z,7.17
2018-12-25T06:40:07.825Z,7.14
2018-12-25T06:41:07.818Z,7.17
2018-12-25T06:42:07.809Z,7.17
2018-12-25T06:43:07.802Z,7.17
2018-12-25T06:44:07.790Z,7.18
2018-12-25T06:45:07.866Z,7.21
2018-12-25T06:46:07.775Z,7.20
2018-12-25T06:47:07.767Z,7.24
2018-12-25T06:48:07.758Z,7.29
2018-12-25T06:49:07.750Z,7.33
2018-12-25T06:50:07.743Z,7.31
2018-12-25T06:51:07.733Z,7.28
2018-12-25T06:52:07.727Z,7.36
2018-12-25T06:53:07.719Z,7.28
2018-12-25T06:54:07.710Z,7.29
2018-12-25T06:55:07.713Z,7.28
2018-12-25T06:56:07.696Z,7.29
2018-12-25T06:57:07.682Z,7.20
2018-12-25T06:58:07.677Z,7.31
2018-12-25T06:59:07.667Z,7.18
2018-12-25T07:00:07.655Z,7.17
2018-12-25T07:01:07.646Z,7.13
2018-12-25T07:02:07.638Z,7.13
2018-12-25T07:03:07.628Z,7.17
2018-12-25T07:04:07.628Z,7.25
2018-12-25T07:05:07.614Z,7.33
2018-12-25T07:06:07.605Z,7.24
2018-12-25T07:07:07.603Z,7.29
2018-12-25T07:08:07.592Z,7.29
2018-12-25T07:09:07.580Z,7.31
2018-12-25T07:10:07.570Z,7.35
2018-12-25T07:11:07.562Z,7.31
2018-12-25T07:12:07.554Z,7.36
2018-12-25T07:13:07.547Z,7.32
2018-12-25T07:14:07.534Z,7.29
2018-12-25T07:15:07.526Z,7.29
2018-12-25T07:16:07.521Z,7.33
2018-12-25T07:17:07.512Z,7.28
2018-12-25T07:18:07.503Z,7.35
2018-12-25T07:19:07.491Z,7.38
2018-12-25T07:20:07.490Z,7.25
2018-12-25T07:21:12.119Z,7.36
2018-12-25T07:22:07.467Z,7.28
2018-12-25T07:23:07.460Z,7.28
2018-12-25T07:24:07.452Z,7.29
2018-12-25T07:25:07.443Z,7.28
2018-12-25T07:26:07.431Z,7.36
2018-12-25T07:27:07.424Z,7.36
2018-12-25T07:28:07.417Z,7.38
2018-12-25T07:29:07.407Z,7.45
2018-12-25T07:30:07.400Z,7.43
2018-12-25T07:31:07.390Z,7.33
2018-12-25T07:32:07.383Z,7.32
2018-12-25T07:33:07.374Z,7.35
2018-12-25T07:34:07.414Z,7.32
2018-12-25T07:35:07.356Z,7.36
2018-12-25T07:36:09.439Z,7.33
2018-12-25T07:37:07.341Z,7.35
2018-12-25T07:38:07.332Z,7.38
2018-12-25T07:39:07.319Z,7.38
2018-12-25T07:40:07.318Z,7.38
2018-12-25T07:41:07.305Z,7.38
2018-12-25T07:42:07.527Z,7.38
2018-12-25T07:43:07.289Z,7.38
2018-12-25T07:44:07.279Z,7.32
2018-12-25T07:45:07.272Z,7.35
2018-12-25T07:46:07.263Z,7.32
2018-12-25T07:47:07.255Z,7.42
2018-12-25T07:48:07.247Z,7.43
2018-12-25T07:49:07.238Z,7.39
2018-12-25T07:50:07.229Z,7.47
2018-12-25T07:51:07.221Z,7.48
2018-12-25T07:52:07.213Z,7.48
2018-12-25T07:53:07.205Z,7.51
2018-12-25T07:54:07.192Z,7.50
2018-12-25T07:55:07.186Z,7.51
2018-12-25T07:56:07.177Z,7.48
2018-12-25T07:57:07.171Z,7.47
2018-12-25T07:58:07.163Z,7.38
2018-12-25T07:59:07.154Z,7.42
2018-12-25T08:00:07.146Z,7.43
2018-12-25T08:01:07.137Z,7.45
2018-12-25T08:02:07.126Z,7.43
2018-12-25T08:03:07.118Z,7.56
2018-12-25T08:04:07.112Z,7.48
2018-12-25T08:05:07.105Z,7.39
2018-12-25T08:06:07.094Z,7.45
2018-12-25T08:07:07.089Z,7.51
2018-12-25T08:08:07.087Z,7.45
2018-12-25T08:09:07.067Z,7.38
2018-12-25T08:10:07.061Z,7.48
2018-12-25T08:11:07.053Z,7.33
2018-12-25T08:12:07.043Z,7.48
2018-12-25T08:13:07.036Z,7.54
2018-12-25T08:14:07.025Z,7.43
2018-12-25T08:15:07.019Z,7.48
2018-12-25T08:16:07.016Z,7.50
2018-12-25T08:17:06.998Z,7.43
2018-12-25T08:18:06.993Z,7.54
2018-12-25T08:19:06.981Z,7.45
2018-12-25T08:20:06.984Z,7.47
2018-12-25T08:21:06.967Z,7.53
2018-12-25T08:22:06.957Z,7.51
2018-12-25T08:23:06.952Z,7.42
2018-12-25T08:24:06.943Z,7.48
2018-12-25T08:25:06.934Z,7.32
2018-12-25T08:26:06.923Z,7.36
2018-12-25T08:27:06.917Z,7.39
2018-12-25T08:28:06.910Z,7.35
2018-12-25T08:29:06.900Z,7.38
2018-12-25T08:30:06.893Z,7.50
2018-12-25T08:31:08.181Z,7.42
2018-12-25T08:32:06.875Z,7.51
2018-12-25T08:33:06.868Z,7.42
2018-12-25T08:34:06.856Z,7.50
2018-12-25T08:35:06.849Z,7.42
2018-12-25T08:36:06.841Z,7.48
2018-12-25T08:37:06.833Z,7.53
2018-12-25T08:38:06.820Z,7.53
2018-12-25T08:39:06.816Z,7.45
2018-12-25T08:40:06.812Z,7.50
2018-12-25T08:41:06.802Z,7.51
2018-12-25T08:42:06.788Z,7.53
2018-12-25T08:43:06.782Z,7.53
2018-12-25T08:44:06.773Z,7.57
2018-12-25T08:45:06.885Z,7.57
2018-12-25T08:46:06.755Z,7.53
2018-12-25T08:47:06.747Z,7.56
2018-12-25T08:48:06.744Z,7.51
2018-12-25T08:49:06.732Z,7.48
2018-12-25T08:50:06.722Z,7.53
2018-12-25T08:51:06.718Z,7.54
2018-12-25T08:52:06.707Z,7.53
2018-12-25T08:53:06.700Z,7.57
2018-12-25T08:54:06.689Z,7.60
2018-12-25T08:55:06.681Z,7.58
2018-12-25T08:56:06.676Z,7.63
2018-12-25T08:57:06.668Z,7.63
2018-12-25T08:58:06.657Z,7.66
2018-12-25T08:59:06.647Z,7.60
2018-12-25T09:00:06.638Z,7.51
2018-12-25T09:01:06.631Z,7.56
2018-12-25T09:02:06.623Z,7.56
2018-12-25T09:03:06.615Z,7.56
2018-12-25T09:04:06.606Z,7.63
2018-12-25T09:05:06.596Z,7.54
2018-12-25T09:06:06.589Z,7.73
2018-12-25T09:07:06.582Z,7.67
2018-12-25T09:08:06.574Z,7.61
2018-12-25T09:09:06.567Z,7.63
2018-12-25T09:10:06.556Z,7.61
2018-12-25T09:11:06.547Z,7.54
2018-12-25T09:12:06.539Z,7.53
2018-12-25T09:13:06.533Z,7.53
2018-12-25T09:14:06.526Z,7.57
2018-12-25T09:15:06.514Z,7.58
2018-12-25T09:16:06.508Z,7.69
2018-12-25T09:17:06.500Z,7.67
2018-12-25T09:18:06.489Z,7.70
2018-12-25T09:19:06.485Z,7.70
2018-12-25T09:20:06.474Z,7.70
2018-12-25T09:21:06.466Z,7.73
2018-12-25T09:22:06.459Z,7.73
2018-12-25T09:23:06.451Z,7.61
2018-12-25T09:24:06.441Z,7.72
2018-12-25T09:25:06.434Z,7.67
2018-12-25T09:26:06.423Z,7.69
2018-12-25T09:27:06.417Z,7.69
2018-12-25T09:28:06.409Z,7.75
2018-12-25T09:29:06.399Z,7.76
2018-12-25T09:30:06.400Z,7.80
2018-12-25T09:31:06.387Z,7.67
2018-12-25T09:32:06.386Z,7.79
2018-12-25T09:33:06.369Z,7.77
2018-12-25T09:34:06.359Z,7.70
2018-12-25T09:35:06.350Z,7.77
2018-12-25T09:36:06.344Z,7.73
2018-12-25T09:37:06.337Z,7.76
2018-12-25T09:38:06.332Z,7.77
2018-12-25T09:39:06.319Z,7.80
2018-12-25T09:40:06.309Z,7.75
2018-12-25T09:41:06.306Z,7.80
2018-12-25T09:42:06.295Z,7.82
2018-12-25T09:43:06.375Z,7.85
2018-12-25T09:44:06.279Z,7.80
2018-12-25T09:45:06.271Z,7.80
2018-12-25T09:46:06.325Z,7.85
2018-12-25T09:47:06.250Z,7.76
2018-12-25T09:48:13.113Z,7.83
2018-12-25T09:49:06.240Z,7.83
2018-12-25T09:50:06.230Z,7.88
2018-12-25T09:51:06.223Z,7.93
2018-12-25T09:52:06.210Z,7.95
2018-12-25T09:53:06.205Z,7.93
2018-12-25T09:54:06.201Z,7.94
2018-12-25T09:55:06.194Z,7.85
2018-12-25T09:56:06.180Z,7.83
2018-12-25T09:57:06.177Z,7.85
2018-12-25T09:58:06.162Z,7.80
2018-12-25T09:59:06.155Z,7.75
2018-12-25T10:00:06.149Z,7.83
2018-12-25T10:01:06.138Z,7.80
2018-12-25T10:02:06.130Z,7.80
2018-12-25T10:03:06.121Z,7.79
2018-12-25T10:04:06.116Z,7.87
2018-12-25T10:05:06.106Z,7.79
2018-12-25T10:06:06.095Z,7.93
2018-12-25T10:07:06.090Z,7.88
2018-12-25T10:08:06.094Z,7.97
2018-12-25T10:09:06.076Z,7.85
2018-12-25T10:10:06.065Z,7.98
2018-12-25T10:11:06.057Z,7.98
2018-12-25T10:12:06.049Z,7.98
2018-12-25T10:13:06.041Z,7.98
2018-12-25T10:14:06.045Z,8.03
2018-12-25T10:15:06.026Z,8.00
2018-12-25T10:16:06.017Z,8.05
2018-12-25T10:17:06.010Z,8.05
2018-12-25T10:18:06.002Z,8.00
2018-12-25T10:19:05.997Z,8.00
2018-12-25T10:20:05.983Z,8.13
2018-12-25T10:21:05.981Z,8.05
2018-12-25T10:22:05.970Z,8.09
2018-12-25T10:23:05.964Z,8.06
2018-12-25T10:24:05.953Z,8.08
2018-12-25T10:25:05.946Z,8.08
2018-12-25T10:26:05.944Z,8.10
2018-12-25T10:27:05.928Z,8.10
2018-12-25T10:28:05.922Z,8.12
2018-12-25T10:29:05.918Z,8.12
2018-12-25T10:30:05.925Z,8.08
2018-12-25T10:31:05.901Z,8.01
2018-12-25T10:32:05.892Z,8.03
2018-12-25T10:33:05.888Z,8.03
2018-12-25T10:34:05.871Z,8.01
2018-12-25T10:35:05.865Z,7.98
2018-12-25T10:36:05.855Z,7.98
2018-12-25T10:37:05.849Z,8.03
2018-12-25T10:38:05.840Z,8.09
2018-12-25T10:39:05.835Z,8.03
2018-12-25T10:40:05.827Z,8.03
2018-12-25T10:41:05.817Z,8.03
2018-12-25T10:42:05.811Z,8.01
2018-12-25T10:43:05.803Z,8.08
2018-12-25T10:44:05.792Z,8.01
2018-12-25T10:45:05.784Z,8.06
2018-12-25T10:46:05.779Z,8.05
2018-12-25T10:47:05.769Z,8.05
2018-12-25T10:48:05.761Z,8.06
2018-12-25T10:49:05.751Z,8.01
2018-12-25T10:50:05.747Z,8.06
2018-12-25T10:51:05.738Z,8.05
2018-12-25T10:52:11.519Z,8.00
2018-12-25T10:53:05.722Z,8.05
2018-12-25T10:54:05.709Z,8.03
2018-12-25T10:55:05.706Z,8.05
2018-12-25T10:56:05.698Z,8.05
2018-12-25T10:57:05.692Z,7.98
2018-12-25T10:58:05.682Z,7.98
2018-12-25T10:59:05.674Z,8.05
2018-12-25T11:00:05.688Z,7.98
2018-12-25T11:01:05.658Z,8.03
2018-12-25T11:02:05.651Z,8.03
2018-12-25T11:03:05.642Z,8.01
2018-12-25T11:04:05.636Z,8.01
2018-12-25T11:05:05.626Z,7.98
2018-12-25T11:06:05.616Z,7.98
2018-12-25T11:07:05.608Z,7.95
2018-12-25T11:08:05.598Z,7.97
2018-12-25T11:09:05.593Z,8.03
2018-12-25T11:10:05.585Z,8.06
2018-12-25T11:11:05.582Z,8.09
2018-12-25T11:12:05.569Z,8.01
2018-12-25T11:13:05.561Z,8.05
2018-12-25T11:14:05.554Z,8.06
2018-12-25T11:15:05.545Z,8.01
2018-12-25T11:16:05.536Z,8.03
2018-12-25T11:17:05.532Z,8.00
2018-12-25T11:18:05.522Z,8.05
2018-12-25T11:19:05.512Z,7.98
2018-12-25T11:20:11.361Z,8.03
2018-12-25T11:21:05.495Z,8.05
2018-12-25T11:22:05.490Z,8.06
2018-12-25T11:23:05.482Z,8.08
2018-12-25T11:24:05.475Z,8.08
2018-12-25T11:25:05.464Z,8.05
2018-12-25T11:26:05.457Z,8.08
2018-12-25T11:27:05.450Z,8.13
2018-12-25T11:28:05.442Z,8.05
2018-12-25T11:29:05.433Z,8.13
2018-12-25T11:30:05.424Z,8.15
2018-12-25T11:31:05.417Z,8.26
2018-12-25T11:32:05.411Z,8.30
2018-12-25T11:33:05.406Z,8.16
2018-12-25T11:34:05.393Z,8.24
2018-12-25T11:35:05.384Z,8.34
2018-12-25T11:36:05.376Z,8.33
2018-12-25T11:37:05.369Z,8.30
2018-12-25T11:38:05.363Z,8.33
2018-12-25T11:39:05.356Z,8.36
2018-12-25T11:40:05.351Z,8.37
2018-12-25T11:41:05.338Z,8.34
2018-12-25T11:42:05.331Z,8.42
2018-12-25T11:43:05.320Z,8.49
2018-12-25T11:44:05.315Z,8.38
2018-12-25T11:45:05.308Z,8.37
2018-12-25T11:46:05.297Z,8.36
2018-12-25T11:47:05.289Z,8.31
2018-12-25T11:48:05.284Z,8.41
2018-12-25T11:49:05.277Z,8.36
2018-12-25T11:50:05.261Z,8.37
2018-12-25T11:51:05.261Z,8.38
2018-12-25T11:52:05.253Z,8.38
2018-12-25T11:53:05.244Z,8.37
2018-12-25T11:54:05.235Z,8.30
2018-12-25T11:55:05.227Z,8.38
2018-12-25T11:56:05.219Z,8.41
2018-12-25T11:57:05.213Z,8.33
2018-12-25T11:58:05.204Z,8.38
2018-12-25T11:59:05.197Z,8.30
2018-12-25T12:00:05.191Z,8.34
2018-12-25T12:01:05.182Z,8.34
2018-12-25T12:02:05.173Z,8.37
2018-12-25T12:03:05.167Z,8.37
2018-12-25T12:04:05.158Z,8.45
2018-12-25T12:05:05.152Z,8.38
2018-12-25T12:06:05.143Z,8.33
2018-12-25T12:07:05.137Z,8.37
2018-12-25T12:08:05.129Z,8.30
2018-12-25T12:09:05.119Z,8.42
2018-12-25T12:10:05.112Z,8.36
2018-12-25T12:11:05.103Z,8.31
2018-12-25T12:12:05.089Z,8.36
2018-12-25T12:13:05.088Z,8.41
2018-12-25T12:14:05.082Z,8.44
2018-12-25T12:15:05.073Z,8.36
2018-12-25T12:16:05.065Z,8.31
2018-12-25T12:17:05.055Z,8.45
2018-12-25T12:18:05.048Z,8.51
2018-12-25T12:19:05.042Z,8.52
2018-12-25T12:20:05.034Z,8.55
2018-12-25T12:21:05.027Z,8.45
2018-12-25T12:22:05.016Z,8.51
2018-12-25T12:23:05.009Z,8.52
2018-12-25T12:24:05.007Z,8.51
2018-12-25T12:25:04.993Z,8.55
2018-12-25T12:26:04.988Z,8.51
2018-12-25T12:27:04.979Z,8.49
2018-12-25T12:28:04.971Z,8.56
2018-12-25T12:29:04.965Z,8.49
2018-12-25T12:30:04.956Z,8.58
2018-12-25T12:31:04.946Z,8.58
2018-12-25T12:32:04.941Z,8.53
2018-12-25T12:33:04.933Z,8.56
2018-12-25T12:34:04.926Z,8.60
2018-12-25T12:35:04.955Z,8.58
2018-12-25T12:36:04.909Z,8.60
2018-12-25T12:37:04.903Z,8.61
2018-12-25T12:38:04.892Z,8.58
2018-12-25T12:39:04.885Z,8.70
2018-12-25T12:40:04.883Z,8.58
2018-12-25T12:41:04.872Z,8.63
2018-12-25T12:42:04.872Z,8.63
2018-12-25T12:43:04.859Z,8.60
2018-12-25T12:44:04.848Z,8.52
2018-12-25T12:45:04.841Z,8.56
2018-12-25T12:46:06.938Z,8.61
2018-12-25T12:47:04.891Z,8.61
2018-12-25T12:48:04.827Z,8.51
2018-12-25T12:49:04.812Z,8.52
2018-12-25T12:50:04.806Z,8.46
2018-12-25T12:51:04.796Z,8.51
2018-12-25T12:52:04.793Z,8.52
2018-12-25T12:53:04.783Z,8.61
2018-12-25T12:54:04.779Z,8.52
2018-12-25T12:55:04.769Z,8.52
2018-12-25T12:56:04.759Z,8.46
2018-12-25T12:57:04.748Z,8.55
2018-12-25T12:58:04.742Z,8.53
2018-12-25T12:59:04.739Z,8.60
2018-12-25T13:00:04.724Z,8.55
2018-12-25T13:01:04.714Z,8.61
2018-12-25T13:02:04.708Z,8.61
2018-12-25T13:03:04.704Z,8.64
2018-12-25T13:04:04.696Z,8.60
2018-12-25T13:05:04.687Z,8.52
2018-12-25T13:06:04.681Z,8.61
2018-12-25T13:07:04.673Z,8.58
2018-12-25T13:08:04.668Z,8.64
2018-12-25T13:09:04.658Z,8.60
2018-12-25T13:10:04.652Z,8.52
2018-12-25T13:11:04.644Z,8.56
2018-12-25T13:12:04.634Z,8.60
2018-12-25T13:13:04.630Z,8.56
2018-12-25T13:14:04.620Z,8.53
2018-12-25T13:15:04.612Z,8.53
2018-12-25T13:16:04.604Z,8.64
2018-12-25T13:17:04.599Z,8.61
2018-12-25T13:18:04.592Z,8.55